createdAt,value
2022-10-19T00:01:23.852Z,6.78
2022-10-19T00:04:11.277Z,6.85
2022-10-19T00:06:58.684Z,7.07
2022-10-19T00:09:46.114Z,6.70
2022-10-19T00:12:33.560Z,6.80
2022-10-19T00:15:21.062Z,7.72
2022-10-19T00:18:09.659Z,6.38
2022-10-19T00:21:06.242Z,6.40
2022-10-19T00:23:54.079Z,6.72
2022-10-19T00:26:44.275Z,7.07
2022-10-19T00:29:32.111Z,7.38
2022-10-19T00:32:19.641Z,7.18
2022-10-19T00:35:08.062Z,5.88
2022-10-19T00:37:55.351Z,6.47
2022-10-19T00:40:42.985Z,6.88
2022-10-19T00:43:32.028Z,5.70
2022-10-19T00:46:19.443Z,5.97
2022-10-19T00:49:28.684Z,6.20
2022-10-19T00:52:24.881Z,6.40
2022-10-19T00:55:13.959Z,5.80
2022-10-19T00:58:04.099Z,5.50
2022-10-19T01:00:51.607Z,5.38
2022-10-19T01:03:40.630Z,5.00
2022-10-19T01:06:28.830Z,5.68
2022-10-19T01:09:16.167Z,4.80
2022-10-19T01:12:51.499Z,4.78
2022-10-19T01:16:06.433Z,4.75
2022-10-19T01:19:38.614Z,5.13
2022-10-19T01:23:25.814Z,4.90
2022-10-19T01:26:28.191Z,4.65
2022-10-19T01:29:55.918Z,4.65
2022-10-19T01:33:19.961Z,4.80
2022-10-19T01:36:14.711Z,4.25
2022-10-19T01:39:36.320Z,4.60
2022-10-19T01:42:45.021Z,4.60
2022-10-19T01:46:13.270Z,4.95
2022-10-19T01:49:29.539Z,4.38
2022-10-19T01:52:23.534Z,4.43
2022-10-19T01:55:17.690Z,4.38
2022-10-19T01:58:15.841Z,4.70
2022-10-19T02:04:24.884Z,4.28
2022-10-19T02:07:13.224Z,4.43
2022-10-19T02:10:01.158Z,4.03
2022-10-19T02:12:51.981Z,4.45
2022-10-19T02:15:49.409Z,4.43
2022-10-19T02:18:49.270Z,3.90
2022-10-19T02:21:36.736Z,3.95
2022-10-19T02:24:24.062Z,3.50
2022-10-19T02:27:12.223Z,3.83
2022-10-19T02:29:59.962Z,4.38
2022-10-19T02:32:47.374Z,3.38
2022-10-19T02:35:35.518Z,3.70
2022-10-19T02:38:25.301Z,3.20
2022-10-19T02:41:31.286Z,3.60
2022-10-19T02:44:40.000Z,4.10
2022-10-19T02:47:54.842Z,3.65
2022-10-19T02:50:49.956Z,3.17
2022-10-19T02:53:37.287Z,4.75
2022-10-19T02:56:24.958Z,4.55
2022-10-19T02:59:12.245Z,3.47
2022-10-19T03:01:59.565Z,4.22
2022-10-19T03:07:54.678Z,3.25
2022-10-19T03:10:42.012Z,3.38
2022-10-19T03:13:29.365Z,3.13
2022-10-19T03:16:16.691Z,2.90
2022-10-19T03:19:04.053Z,5.20
2022-10-19T03:21:51.367Z,2.40
2022-10-19T03:24:38.712Z,3.00
2022-10-19T03:27:26.029Z,3.15
2022-10-19T03:30:13.377Z,2.33
2022-10-19T03:33:00.674Z,3.03
2022-10-19T03:35:48.191Z,2.97
2022-10-19T03:38:35.541Z,2.58
2022-10-19T03:41:28.237Z,2.75
2022-10-19T03:44:15.609Z,3.10
2022-10-19T03:47:02.911Z,2.78
2022-10-19T03:49:50.714Z,2.50
2022-10-19T03:52:38.006Z,2.60
2022-10-19T03:55:25.314Z,2.83
2022-10-19T03:58:12.882Z,2.20
2022-10-19T04:01:00.735Z,2.60
2022-10-19T04:03:57.122Z,2.15
2022-10-19T04:06:48.848Z,2.63
2022-10-19T04:09:36.179Z,2.53
2022-10-19T04:12:23.697Z,2.30
2022-10-19T04:15:11.224Z,2.25
2022-10-19T04:17:58.564Z,2.10
2022-10-19T04:20:45.966Z,2.22
2022-10-19T04:23:36.339Z,2.58
2022-10-19T04:26:23.745Z,2.47
2022-10-19T04:29:12.539Z,2.33
2022-10-19T04:31:59.958Z,2.10
2022-10-19T04:34:47.282Z,2.13
2022-10-19T04:37:34.990Z,1.98
2022-10-19T04:40:22.554Z,2.20
2022-10-19T04:43:09.834Z,2.10
2022-10-19T04:45:57.155Z,1.75
2022-10-19T04:48:48.056Z,1.63
2022-10-19T04:51:35.763Z,2.05
2022-10-19T04:54:23.271Z,1.88
2022-10-19T04:57:10.603Z,1.80
2022-10-19T04:59:57.884Z,1.60
2022-10-19T05:02:47.571Z,1.95
2022-10-19T05:05:35.818Z,1.92
2022-10-19T05:08:23.105Z,1.80
2022-10-19T05:11:14.923Z,1.63
2022-10-19T05:14:02.238Z,1.90
2022-10-19T05:16:49.525Z,1.20
2022-10-19T05:19:36.804Z,2.28
2022-10-19T05:22:25.033Z,1.50
2022-10-19T05:25:12.400Z,1.95
2022-10-19T05:27:59.825Z,1.40
2022-10-19T05:30:49.048Z,1.95
2022-10-19T05:36:32.331Z,2.03
2022-10-19T05:39:19.725Z,2.17
2022-10-19T05:42:11.439Z,2.10
2022-10-19T05:44:59.065Z,2.13
2022-10-19T05:47:46.367Z,2.83
2022-10-19T05:50:33.727Z,1.73
2022-10-19T05:53:21.400Z,2.28
2022-10-19T05:56:16.603Z,2.45
2022-10-19T05:59:10.264Z,1.67
2022-10-19T06:01:57.602Z,1.70
2022-10-19T06:04:44.916Z,1.92
2022-10-19T06:07:32.657Z,1.98
2022-10-19T06:10:21.316Z,1.83
2022-10-19T06:13:09.843Z,1.67
2022-10-19T06:15:57.184Z,1.55
2022-10-19T06:18:45.577Z,1.52
2022-10-19T06:21:35.267Z,1.97
2022-10-19T06:24:22.560Z,1.80
2022-10-19T06:27:09.904Z,1.60
2022-10-19T06:29:57.201Z,1.30
2022-10-19T06:32:44.503Z,2.03
2022-10-19T06:35:31.887Z,2.05
2022-10-19T06:38:19.180Z,1.50
2022-10-19T06:41:07.297Z,1.75
2022-10-19T06:43:55.973Z,1.70
2022-10-19T06:46:43.231Z,1.30
2022-10-19T06:49:30.558Z,1.38
2022-10-19T06:52:17.825Z,1.88
2022-10-19T06:55:06.158Z,1.27
2022-10-19T06:57:53.399Z,1.65
2022-10-19T07:00:41.103Z,1.60
2022-10-19T07:03:30.626Z,1.67
2022-10-19T07:06:18.116Z,1.52
2022-10-19T07:09:05.720Z,1.60
2022-10-19T07:11:53.083Z,1.45
2022-10-19T07:14:40.412Z,1.48
2022-10-19T07:17:27.759Z,1.55
2022-10-19T07:20:15.062Z,1.67
2022-10-19T07:23:02.795Z,1.63
2022-10-19T07:25:52.566Z,1.52
2022-10-19T07:28:43.947Z,1.67
2022-10-19T07:31:32.764Z,2.40
2022-10-19T07:34:20.041Z,1.52
2022-10-19T07:37:07.391Z,1.65
2022-10-19T07:39:54.680Z,1.30
2022-10-19T07:42:41.922Z,1.52
2022-10-19T07:45:30.071Z,1.30
2022-10-19T07:48:17.372Z,1.40
2022-10-19T07:51:09.088Z,1.48
2022-10-19T07:53:58.474Z,1.85
2022-10-19T07:59:32.952Z,1.20
2022-10-19T08:02:20.568Z,1.13
2022-10-19T08:05:11.621Z,1.45
2022-10-19T08:07:59.430Z,1.85
2022-10-19T08:10:46.714Z,1.40
2022-10-19T08:13:34.627Z,1.42
2022-10-19T08:16:44.324Z,0.90
2022-10-19T08:19:31.660Z,1.60
2022-10-19T08:22:19.039Z,1.40
2022-10-19T08:25:06.825Z,1.45
2022-10-19T08:27:54.139Z,2.38
2022-10-19T08:30:41.570Z,1.40
2022-10-19T08:33:28.860Z,1.23
2022-10-19T08:36:17.293Z,1.10
2022-10-19T08:39:09.344Z,1.10
2022-10-19T08:42:23.743Z,1.35
2022-10-19T08:48:49.429Z,1.33
2022-10-19T08:51:43.196Z,1.45
2022-10-19T08:54:54.911Z,1.35
2022-10-19T08:58:29.931Z,1.10
2022-10-19T09:01:52.164Z,1.70
2022-10-19T09:04:50.372Z,1.52
2022-10-19T09:07:45.647Z,1.27
2022-10-19T09:10:42.316Z,1.42
2022-10-19T09:14:06.172Z,1.10
2022-10-19T09:17:04.199Z,1.40
2022-10-19T09:19:52.865Z,1.25
2022-10-19T09:22:43.957Z,1.23
2022-10-19T09:25:38.321Z,1.30
2022-10-19T09:28:47.566Z,1.50
2022-10-19T09:31:40.976Z,1.50
2022-10-19T09:34:58.941Z,1.50
2022-10-19T09:37:51.521Z,1.30
2022-10-19T09:40:38.775Z,1.60
2022-10-19T09:43:28.271Z,1.33
2022-10-19T09:46:42.115Z,1.65
2022-10-19T09:49:47.224Z,1.40
2022-10-19T09:52:41.547Z,1.90
2022-10-19T09:55:56.049Z,1.30
2022-10-19T09:58:58.912Z,1.15
2022-10-19T10:01:46.339Z,1.27
2022-10-19T10:04:36.490Z,1.75
2022-10-19T10:07:39.230Z,2.22
2022-10-19T10:13:55.517Z,1.40
2022-10-19T10:16:43.209Z,1.48
2022-10-19T10:22:37.805Z,1.60
2022-10-19T10:25:36.225Z,1.95
2022-10-19T10:28:29.446Z,1.75
2022-10-19T10:31:27.428Z,1.38
2022-10-19T10:34:46.327Z,1.27
2022-10-19T10:37:45.966Z,1.40
2022-10-19T10:40:33.649Z,1.98
2022-10-19T10:43:33.679Z,1.35
2022-10-19T10:49:34.664Z,1.17
2022-10-19T10:52:23.606Z,1.30
2022-10-19T10:55:10.789Z,1.42
2022-10-19T10:58:34.783Z,1.27
2022-10-19T11:01:39.707Z,1.10
2022-10-19T11:04:42.399Z,0.80
2022-10-19T11:07:36.050Z,0.85
2022-10-19T11:10:41.384Z,1.10
2022-10-19T11:13:48.816Z,1.00
2022-10-19T11:16:46.881Z,1.13
2022-10-19T11:19:45.369Z,1.23
2022-10-19T11:23:04.506Z,0.70
2022-10-19T11:26:28.037Z,0.90
2022-10-19T11:29:42.606Z,0.80
2022-10-19T11:33:16.097Z,0.82
2022-10-19T11:36:38.027Z,0.80
2022-10-19T11:40:05.758Z,0.65
2022-10-19T11:43:29.407Z,1.20
2022-10-19T11:46:26.347Z,0.77
2022-10-19T11:49:56.391Z,0.70
2022-10-19T11:53:15.891Z,0.88
2022-10-19T11:57:08.313Z,0.60
2022-10-19T12:00:37.517Z,0.70
2022-10-19T12:04:36.899Z,0.68
2022-10-19T12:07:56.843Z,0.70
2022-10-19T12:11:49.170Z,0.90
2022-10-19T12:14:46.766Z,1.10
2022-10-19T12:17:42.600Z,1.30
2022-10-19T12:20:45.749Z,0.77
2022-10-19T12:23:41.445Z,0.60
2022-10-19T12:26:37.187Z,0.70
2022-10-19T12:29:41.970Z,0.65
2022-10-19T12:32:44.821Z,0.88
2022-10-19T12:36:19.631Z,0.80
2022-10-19T12:40:05.260Z,0.70
2022-10-19T12:43:14.713Z,0.80
2022-10-19T12:46:30.638Z,1.05
2022-10-19T12:49:51.706Z,0.60
2022-10-19T12:52:52.351Z,0.60
2022-10-19T12:55:42.346Z,0.50
2022-10-19T12:58:47.632Z,0.88
2022-10-19T13:01:35.162Z,0.80
2022-10-19T13:04:37.758Z,0.88
2022-10-19T13:07:31.950Z,0.60
2022-10-19T13:10:27.350Z,0.70
2022-10-19T13:13:56.600Z,1.00
2022-10-19T13:17:09.107Z,0.65
2022-10-19T13:20:19.387Z,0.68
2022-10-19T13:23:06.519Z,0.60
2022-10-19T13:26:35.546Z,0.55
2022-10-19T13:29:39.228Z,0.77
2022-10-19T13:32:45.952Z,0.52
2022-10-19T13:35:36.073Z,0.90
2022-10-19T13:38:31.413Z,0.77
2022-10-19T13:41:25.855Z,0.95
2022-10-19T13:44:13.903Z,0.60
2022-10-19T13:47:19.404Z,0.80
2022-10-19T13:50:42.911Z,0.63
2022-10-19T13:54:24.526Z,0.77
2022-10-19T13:57:53.155Z,0.77
2022-10-19T14:01:54.544Z,0.70
2022-10-19T14:05:28.462Z,0.95
2022-10-19T14:08:55.559Z,0.70
2022-10-19T14:11:52.790Z,0.55
2022-10-19T14:14:44.810Z,0.80
2022-10-19T14:17:35.276Z,0.80
2022-10-19T14:20:30.041Z,0.77
2022-10-19T14:23:40.274Z,0.60
2022-10-19T14:26:31.278Z,0.80
2022-10-19T14:29:18.650Z,0.80
2022-10-19T14:32:06.138Z,0.80
2022-10-19T14:38:29.817Z,0.75
2022-10-19T14:41:36.136Z,1.15
2022-10-19T14:44:40.395Z,0.80
2022-10-19T14:47:27.757Z,1.13
2022-10-19T14:50:15.284Z,0.70
2022-10-19T14:53:39.856Z,1.02
2022-10-19T14:56:50.300Z,0.77
2022-10-19T14:59:50.640Z,0.95
2022-10-19T15:02:47.114Z,0.75
2022-10-19T15:05:46.854Z,1.15
2022-10-19T15:08:47.902Z,1.10
2022-10-19T15:11:46.793Z,1.42
2022-10-19T15:14:35.383Z,0.90
2022-10-19T15:17:32.089Z,0.95
2022-10-19T15:20:44.156Z,1.45
2022-10-19T15:23:51.755Z,1.27
2022-10-19T15:26:39.103Z,1.25
2022-10-19T15:29:30.078Z,1.55
2022-10-19T15:32:31.924Z,1.08
2022-10-19T15:35:32.151Z,1.50
2022-10-19T15:38:28.860Z,1.23
2022-10-19T15:41:25.674Z,0.82
2022-10-19T15:44:44.134Z,1.00
2022-10-19T15:47:31.858Z,1.08
2022-10-19T15:50:42.781Z,1.10
2022-10-19T15:53:30.074Z,0.98
2022-10-19T15:56:17.575Z,1.40
2022-10-19T15:59:19.352Z,1.20
2022-10-19T16:02:13.840Z,1.27
2022-10-19T16:05:01.203Z,1.10
2022-10-19T16:07:48.987Z,1.10
2022-10-19T16:10:36.334Z,1.00
2022-10-19T16:13:23.625Z,1.23
2022-10-19T16:16:24.704Z,0.93
2022-10-19T16:40:12.969Z,1.10
2022-10-19T16:43:00.808Z,1.92
2022-10-19T16:45:48.291Z,1.33
2022-10-19T16:48:15.317Z,1.50
2022-10-19T16:53:29.134Z,1.55
2022-10-19T16:56:10.814Z,1.80
2022-10-19T16:58:40.048Z,1.50
2022-10-19T17:01:16.420Z,1.48
2022-10-19T17:03:47.301Z,2.10
2022-10-19T17:06:17.384Z,2.25
2022-10-19T17:09:23.708Z,1.98
2022-10-19T17:11:39.362Z,2.22
2022-10-19T17:14:12.317Z,2.80
2022-10-19T17:16:40.345Z,2.20
2022-10-19T17:21:39.561Z,3.33
2022-10-19T17:24:18.432Z,3.60
2022-10-19T17:26:47.288Z,5.05
2022-10-19T17:29:14.749Z,4.60
2022-10-19T17:31:43.596Z,4.45
2022-10-19T17:34:11.918Z,5.05
2022-10-19T17:36:47.455Z,5.07
2022-10-19T17:39:25.792Z,5.03
2022-10-19T17:42:01.999Z,5.60
2022-10-19T17:44:31.602Z,5.88
2022-10-19T17:47:00.931Z,5.47
2022-10-19T17:49:29.888Z,6.32
2022-10-19T17:51:57.818Z,6.60
2022-10-19T17:54:24.821Z,6.45
2022-10-19T17:56:52.052Z,6.80
2022-10-19T17:59:30.039Z,6.20
2022-10-19T18:02:04.526Z,7.75
2022-10-19T18:04:31.964Z,7.85
2022-10-19T18:06:58.968Z,7.97
2022-10-19T18:09:26.141Z,7.80
2022-10-19T18:11:54.006Z,8.57
2022-10-19T18:14:21.264Z,8.73
2022-10-19T18:16:49.650Z,8.55
2022-10-19T18:19:17.409Z,7.75
2022-10-19T18:21:47.399Z,7.47
2022-10-19T18:24:20.293Z,7.85
2022-10-19T18:26:52.053Z,8.02
2022-10-19T18:29:24.860Z,7.65
2022-10-19T18:31:53.474Z,8.75
2022-10-19T18:34:26.617Z,8.15
2022-10-19T18:36:55.028Z,8.43
2022-10-19T18:39:40.717Z,9.50
2022-10-19T18:42:14.800Z,10.75
2022-10-19T18:44:41.713Z,11.20
2022-10-19T18:47:08.839Z,11.10
2022-10-19T18:49:36.028Z,12.20
2022-10-19T18:52:02.985Z,13.53
2022-10-19T18:54:30.088Z,12.82
2022-10-19T18:56:57.148Z,12.90
2022-10-19T18:59:24.307Z,12.57
2022-10-19T19:01:51.837Z,13.40
2022-10-19T19:04:19.058Z,13.25
2022-10-19T19:06:46.079Z,13.23
2022-10-19T19:09:14.231Z,12.20
2022-10-19T19:11:41.743Z,12.48
2022-10-19T19:14:21.008Z,11.68
2022-10-19T19:16:48.819Z,11.70
2022-10-19T19:19:19.765Z,13.23
2022-10-19T19:21:47.816Z,11.63
2022-10-19T19:26:53.264Z,10.80
2022-10-19T19:29:22.256Z,12.00
2022-10-19T19:31:49.390Z,12.45
2022-10-19T19:34:16.910Z,11.40
2022-10-19T19:36:48.343Z,11.45
2022-10-19T19:39:20.800Z,11.75
2022-10-19T19:41:50.215Z,11.88
2022-10-19T19:44:19.491Z,11.88
2022-10-19T19:46:47.930Z,13.52
2022-10-19T19:49:16.796Z,13.05
2022-10-19T19:51:44.994Z,11.80
2022-10-19T19:54:13.210Z,12.10
2022-10-19T19:56:42.552Z,11.50
2022-10-19T19:59:13.062Z,11.73
2022-10-19T20:01:41.968Z,10.65
2022-10-19T20:04:12.438Z,10.85
2022-10-19T20:06:41.677Z,10.70
2022-10-19T20:09:10.859Z,11.05
2022-10-19T20:11:42.085Z,10.38
2022-10-19T20:14:10.517Z,11.10
2022-10-19T20:16:37.539Z,10.20
2022-10-19T20:19:14.647Z,10.33
2022-10-19T20:21:42.698Z,10.55
2022-10-19T20:26:37.812Z,10.70
2022-10-19T20:29:06.286Z,10.73
2022-10-19T20:31:39.483Z,11.73
2022-10-19T20:34:14.242Z,11.18
2022-10-19T20:36:41.676Z,11.50
2022-10-19T20:39:09.938Z,11.57
2022-10-19T20:41:36.893Z,12.63
2022-10-19T20:44:04.631Z,12.15
2022-10-19T20:46:31.778Z,14.88
2022-10-19T20:49:01.944Z,17.07
2022-10-19T20:51:36.937Z,17.80
2022-10-19T20:54:09.919Z,12.52
2022-10-19T20:56:40.951Z,12.95
2022-10-19T20:59:19.942Z,11.55
2022-10-19T21:01:52.180Z,11.82
2022-10-19T21:04:19.397Z,10.45
2022-10-19T21:06:51.137Z,9.43
2022-10-19T21:09:23.703Z,8.27
2022-10-19T21:11:53.712Z,7.80
2022-10-19T21:14:29.512Z,8.55
2022-10-19T21:17:00.781Z,9.13
2022-10-19T21:19:30.933Z,8.32
2022-10-19T21:22:02.484Z,8.20
2022-10-19T21:24:36.738Z,8.80
2022-10-19T21:27:14.237Z,7.55
2022-10-19T21:29:42.305Z,8.00
2022-10-19T21:34:38.491Z,10.10
2022-10-19T21:37:06.293Z,9.10
2022-10-19T21:39:33.056Z,8.90
2022-10-19T21:41:59.797Z,8.85
2022-10-19T21:44:26.543Z,8.60
2022-10-19T21:46:53.379Z,7.85
2022-10-19T21:49:20.175Z,7.10
2022-10-19T21:51:54.760Z,7.00
2022-10-19T21:54:25.490Z,6.90
2022-10-19T21:56:53.515Z,7.40
2022-10-19T22:01:47.228Z,9.90
2022-10-19T22:04:18.136Z,9.23
2022-10-19T22:06:45.515Z,9.63
2022-10-19T22:09:21.807Z,9.30
2022-10-19T22:11:49.256Z,7.22
2022-10-19T22:14:17.904Z,7.07
2022-10-19T22:16:45.256Z,6.75
2022-10-19T22:19:13.339Z,6.70
2022-10-19T22:24:15.429Z,6.85
2022-10-19T22:26:50.750Z,5.85
2022-10-19T22:29:18.671Z,5.70
2022-10-19T22:31:45.543Z,4.60
2022-10-19T22:34:17.391Z,5.30
2022-10-19T22:36:45.515Z,5.38
2022-10-19T22:39:14.162Z,5.68
2022-10-19T22:41:40.915Z,4.97
2022-10-19T22:44:07.853Z,4.88
2022-10-19T22:46:34.886Z,4.93
2022-10-19T22:49:01.944Z,5.18
2022-10-19T22:51:28.963Z,5.00
2022-10-19T22:53:56.034Z,4.97
2022-10-19T22:56:23.051Z,5.57
2022-10-19T22:58:50.048Z,4.82
2022-10-19T23:01:17.944Z,5.32
2022-10-19T23:03:45.028Z,4.65
2022-10-19T23:06:15.671Z,5.30
2022-10-19T23:08:44.542Z,4.30
2022-10-19T23:11:13.151Z,4.22
2022-10-19T23:13:41.344Z,4.72
2022-10-19T23:16:10.133Z,5.15
2022-10-19T23:18:41.222Z,4.63
2022-10-19T23:21:13.385Z,5.50
2022-10-19T23:23:41.775Z,4.68
2022-10-19T23:26:19.011Z,4.72
2022-10-19T23:28:49.987Z,5.25
2022-10-19T23:31:26.190Z,4.50
2022-10-19T23:33:57.312Z,4.18
2022-10-19T23:36:28.936Z,4.50
2022-10-19T23:38:58.767Z,4.38
2022-10-19T23:41:26.251Z,4.88
2022-10-19T23:43:53.148Z,4.28
2022-10-19T23:46:20.707Z,4.28
2022-10-19T23:48:47.632Z,4.35
2022-10-19T23:51:19.517Z,4.80
2022-10-19T23:53:50.531Z,4.25
2022-10-19T23:56:26.471Z,4.72
2022-10-19T23:58:54.993Z,4.70
